createdAt,value
2023-02-07T00:01:49.213Z,9.52
2023-02-07T00:06:51.072Z,8.18
2023-02-07T00:11:53.035Z,7.80
2023-02-07T00:16:54.834Z,5.47
2023-02-07T00:21:56.647Z,8.13
2023-02-07T00:26:58.560Z,8.07
2023-02-07T00:32:00.403Z,6.43
2023-02-07T00:37:05.967Z,9.07
2023-02-07T00:42:07.912Z,7.68
2023-02-07T00:47:09.765Z,6.78
2023-02-07T00:52:13.189Z,6.85
2023-02-07T00:57:17.640Z,9.88
2023-02-07T01:02:19.423Z,7.10
2023-02-07T01:07:24.726Z,7.95
2023-02-07T01:12:26.531Z,7.57
2023-02-07T01:17:28.350Z,7.72
2023-02-07T01:22:30.969Z,6.90
2023-02-07T01:27:33.294Z,5.40
2023-02-07T01:32:35.867Z,5.07
2023-02-07T01:37:37.736Z,6.22
2023-02-07T01:42:39.688Z,6.90
2023-02-07T01:47:41.848Z,5.55
2023-02-07T01:52:44.043Z,4.57
2023-02-07T01:57:46.196Z,4.97
2023-02-07T02:02:48.221Z,6.78
2023-02-07T02:07:51.298Z,5.80
2023-02-07T02:13:39.241Z,6.30
2023-02-07T02:18:46.766Z,6.03
2023-02-07T02:24:15.612Z,8.13
2023-02-07T02:29:35.775Z,6.03
2023-02-07T02:34:56.296Z,5.15
2023-02-07T02:40:04.026Z,6.65
2023-02-07T02:45:18.998Z,5.00
2023-02-07T02:50:30.650Z,5.45
2023-02-07T02:55:38.976Z,6.97
2023-02-07T03:00:51.914Z,5.03
2023-02-07T03:06:03.475Z,6.13
2023-02-07T03:11:18.840Z,5.95
2023-02-07T03:16:43.582Z,6.65
2023-02-07T03:22:10.737Z,6.15
2023-02-07T03:27:17.161Z,6.78
2023-02-07T03:32:19.680Z,7.80
2023-02-07T03:37:24.192Z,4.68
2023-02-07T03:42:34.791Z,6.28
2023-02-07T03:47:36.759Z,6.55
2023-02-07T03:52:38.648Z,5.85
2023-02-07T03:57:43.926Z,5.15
2023-02-07T04:02:46.181Z,6.15
2023-02-07T04:07:48.062Z,3.67
2023-02-07T04:12:50.290Z,4.55
2023-02-07T04:17:52.372Z,3.65
2023-02-07T04:22:54.195Z,3.90
2023-02-07T04:27:56.072Z,3.00
2023-02-07T04:32:58.048Z,3.75
2023-02-07T04:38:00.412Z,4.20
2023-02-07T04:43:02.669Z,5.15
2023-02-07T04:48:04.744Z,5.15
2023-02-07T04:53:06.888Z,2.85
2023-02-07T04:58:08.765Z,3.58
2023-02-07T05:03:10.716Z,2.72
2023-02-07T05:08:13.587Z,2.65
2023-02-07T05:13:15.895Z,2.47
2023-02-07T05:18:18.020Z,2.75
2023-02-07T05:23:20.114Z,4.53
2023-02-07T05:28:22.017Z,3.65
2023-02-07T05:33:24.092Z,2.92
2023-02-07T05:38:25.889Z,4.20
2023-02-07T05:43:27.792Z,3.90
2023-02-07T05:48:29.634Z,4.10
2023-02-07T05:53:31.479Z,3.45
2023-02-07T05:58:33.441Z,4.00
2023-02-07T06:03:35.316Z,10.18
2023-02-07T06:08:37.178Z,3.70
2023-02-07T06:13:39.352Z,4.95
2023-02-07T06:18:41.251Z,6.22
2023-02-07T06:23:43.938Z,3.78
2023-02-07T06:28:46.258Z,9.55
2023-02-07T06:33:48.083Z,5.47
2023-02-07T06:38:52.696Z,3.83
2023-02-07T06:43:54.603Z,4.05
2023-02-07T06:48:56.544Z,8.15
2023-02-07T06:53:59.704Z,3.88
2023-02-07T06:59:01.580Z,6.20
2023-02-07T07:04:03.549Z,8.05
2023-02-07T07:09:05.678Z,6.93
2023-02-07T07:14:07.449Z,8.85
2023-02-07T07:19:09.288Z,5.45
2023-02-07T07:24:11.136Z,4.35
2023-02-07T07:29:12.934Z,5.28
2023-02-07T07:34:14.901Z,3.40
2023-02-07T07:39:17.167Z,4.72
2023-02-07T07:44:19.455Z,3.47
2023-02-07T07:49:21.708Z,8.00
2023-02-07T07:54:23.721Z,6.05
2023-02-07T07:59:25.635Z,5.70
2023-02-07T08:04:28.155Z,11.93
2023-02-07T08:09:29.932Z,6.40
2023-02-07T08:14:31.867Z,12.82
2023-02-07T08:19:33.771Z,13.20
2023-02-07T08:24:36.562Z,10.30
2023-02-07T08:29:38.452Z,26.30
2023-02-07T08:34:40.392Z,48.22
2023-02-07T08:39:42.143Z,23.48
2023-02-07T08:44:44.025Z,11.40
2023-02-07T08:49:45.892Z,21.65
2023-02-07T08:54:47.763Z,6.55
2023-02-07T08:59:49.587Z,5.20
2023-02-07T09:04:51.938Z,5.53
2023-02-07T09:09:53.822Z,9.13
2023-02-07T09:14:55.613Z,7.40
2023-02-07T09:19:57.428Z,6.32
2023-02-07T09:24:59.355Z,10.30
2023-02-07T09:30:01.151Z,8.05
2023-02-07T09:35:02.986Z,10.23
2023-02-07T09:40:05.605Z,21.90
2023-02-07T09:45:14.297Z,21.25
2023-02-07T09:50:28.496Z,21.33
2023-02-07T09:55:44.538Z,10.02
2023-02-07T10:00:53.851Z,13.20
2023-02-07T10:06:09.176Z,9.05
2023-02-07T10:11:37.305Z,12.05
2023-02-07T10:16:55.917Z,10.88
2023-02-07T10:22:14.615Z,16.35
2023-02-07T10:27:29.635Z,10.60
2023-02-07T10:32:38.212Z,7.22
2023-02-07T10:37:40.901Z,11.27
2023-02-07T10:42:48.254Z,7.10
2023-02-07T10:47:50.980Z,11.68
2023-02-07T10:52:54.928Z,12.90
2023-02-07T10:58:02.696Z,27.05
2023-02-07T11:03:14.883Z,10.60
2023-02-07T11:08:24.574Z,11.80
2023-02-07T11:13:30.573Z,12.10
2023-02-07T11:18:55.845Z,11.73
2023-02-07T11:24:14.152Z,9.57
2023-02-07T11:29:21.275Z,15.00
2023-02-07T11:34:40.188Z,11.80
2023-02-07T11:39:42.912Z,11.55
2023-02-07T11:44:46.336Z,11.43
2023-02-07T11:50:08.160Z,20.20
2023-02-07T11:55:16.561Z,13.98
2023-02-07T12:00:24.712Z,14.88
2023-02-07T12:05:33.879Z,10.57
2023-02-07T12:10:42.731Z,13.13
2023-02-07T12:15:52.325Z,10.10
2023-02-07T12:21:02.333Z,9.05
2023-02-07T12:26:15.385Z,8.77
2023-02-07T12:31:37.617Z,9.55
2023-02-07T12:36:46.189Z,10.18
2023-02-07T12:41:54.097Z,9.48
2023-02-07T12:47:17.206Z,8.40
2023-02-07T12:52:37.184Z,7.20
2023-02-07T12:58:16.815Z,11.48
2023-02-07T13:03:24.562Z,7.70
2023-02-07T13:09:07.824Z,9.38
2023-02-07T13:14:24.666Z,8.55
2023-02-07T13:19:48.184Z,7.93
2023-02-07T13:24:51.555Z,10.38
2023-02-07T13:29:53.728Z,10.55
2023-02-07T13:35:04.792Z,12.90
2023-02-07T13:40:20.023Z,9.70
2023-02-07T13:45:35.668Z,9.85
2023-02-07T13:51:00.820Z,9.27
2023-02-07T13:56:08.241Z,9.32
2023-02-07T14:01:17.288Z,7.95
2023-02-07T14:06:25.772Z,8.90
2023-02-07T14:11:38.925Z,11.20
2023-02-07T14:17:02.371Z,7.32
2023-02-07T14:22:31.204Z,8.27
2023-02-07T14:27:42.398Z,10.68
2023-02-07T14:33:15.123Z,10.93
2023-02-07T14:38:28.264Z,10.85
2023-02-07T14:43:54.320Z,10.68
2023-02-07T14:54:51.808Z,8.45
2023-02-07T15:00:16.960Z,9.93
2023-02-07T15:05:24.961Z,15.00
2023-02-07T15:10:32.106Z,11.52
2023-02-07T15:21:00.003Z,13.05
2023-02-07T15:26:10.548Z,11.10
2023-02-07T15:31:14.558Z,18.10
2023-02-07T15:36:39.230Z,12.77
2023-02-07T15:41:50.592Z,18.38
2023-02-07T15:52:44.586Z,12.45
2023-02-07T15:57:50.709Z,25.08
2023-02-07T16:02:58.222Z,18.52
2023-02-07T16:08:03.122Z,17.48
2023-02-07T16:13:22.789Z,17.42
2023-02-07T16:18:48.800Z,16.23
2023-02-07T16:29:19.925Z,16.38
2023-02-07T16:39:42.213Z,17.00
2023-02-07T16:44:46.766Z,19.65
2023-02-07T16:49:48.750Z,15.48
2023-02-07T16:54:50.700Z,12.05
2023-02-07T16:59:52.752Z,11.88
2023-02-07T17:04:54.641Z,16.23
2023-02-07T17:09:57.572Z,17.00
2023-02-07T17:14:59.408Z,18.55
2023-02-07T17:20:01.293Z,13.52
2023-02-07T17:25:04.110Z,15.30
2023-02-07T17:30:33.921Z,14.93
2023-02-07T17:35:36.528Z,12.57
2023-02-07T17:40:40.253Z,16.70
2023-02-07T17:45:42.299Z,35.72
2023-02-07T17:56:30.887Z,17.10
2023-02-07T18:01:33.771Z,17.67
2023-02-07T18:06:35.736Z,21.85
2023-02-07T18:11:37.583Z,19.98
2023-02-07T18:16:49.322Z,18.70
2023-02-07T18:21:53.940Z,16.92
2023-02-07T18:32:17.720Z,24.85
2023-02-07T18:37:22.174Z,25.67
2023-02-07T18:42:24.853Z,26.58
2023-02-07T18:47:27.083Z,16.70
2023-02-07T18:52:29.599Z,14.55
2023-02-07T18:57:32.211Z,21.05
2023-02-07T19:02:34.115Z,16.58
2023-02-07T19:07:36.036Z,13.25
2023-02-07T19:12:38.949Z,14.15
2023-02-07T19:17:44.080Z,13.18
2023-02-07T19:22:46.774Z,12.50
2023-02-07T19:27:48.756Z,12.82
2023-02-07T19:32:51.425Z,12.38
2023-02-07T19:37:53.318Z,9.85
2023-02-07T19:42:55.196Z,12.20
2023-02-07T19:47:57.001Z,11.43
2023-02-07T19:52:58.862Z,11.48
2023-02-07T19:58:00.851Z,11.13
2023-02-07T20:03:02.738Z,12.13
2023-02-07T20:08:05.081Z,11.75
2023-02-07T20:13:06.909Z,15.57
2023-02-07T20:18:09.468Z,12.10
2023-02-07T20:23:11.835Z,9.35
2023-02-07T20:28:13.796Z,11.65
2023-02-07T20:33:15.655Z,11.52
2023-02-07T20:38:17.648Z,12.13
2023-02-07T20:43:19.476Z,11.32
2023-02-07T20:48:21.322Z,10.30
2023-02-07T20:53:23.189Z,9.65
2023-02-07T20:58:25.032Z,11.73
2023-02-07T21:03:26.880Z,11.48
2023-02-07T21:08:28.775Z,10.90
2023-02-07T21:13:31.333Z,12.98
2023-02-07T21:18:34.932Z,12.73
2023-02-07T21:23:38.573Z,16.75
2023-02-07T21:28:40.908Z,9.68
2023-02-07T21:33:42.873Z,13.25
2023-02-07T21:38:48.441Z,13.80
2023-02-07T21:43:50.803Z,12.88
2023-02-07T21:48:56.844Z,12.68
2023-02-07T21:54:00.020Z,13.57
2023-02-07T21:59:05.270Z,10.50
2023-02-07T22:04:11.915Z,12.70
2023-02-07T22:09:18.312Z,12.68
2023-02-07T22:14:20.661Z,12.30
2023-02-07T22:19:22.563Z,12.05
2023-02-07T22:24:24.499Z,11.65
2023-02-07T22:29:26.625Z,14.30
2023-02-07T22:34:28.468Z,9.07
2023-02-07T22:39:30.354Z,8.75
2023-02-07T22:44:32.237Z,6.35
2023-02-07T22:49:34.124Z,6.43
2023-02-07T22:54:36.041Z,7.63
2023-02-07T22:59:38.288Z,7.05
2023-02-07T23:04:40.148Z,6.85
2023-02-07T23:09:42.091Z,8.38
2023-02-07T23:14:44.004Z,7.38
2023-02-07T23:19:45.937Z,7.57
2023-02-07T23:24:47.960Z,4.55
2023-02-07T23:29:49.969Z,5.50
2023-02-07T23:34:51.868Z,7.35
2023-02-07T23:39:53.704Z,4.25
2023-02-07T23:44:55.646Z,5.05
2023-02-07T23:49:57.531Z,7.68
2023-02-07T23:54:59.424Z,4.53
